createdAt,value
2022-09-17T00:01:05.153Z,12.50
2022-09-17T00:03:34.294Z,12.50
2022-09-17T00:06:08.415Z,12.60
2022-09-17T00:08:37.522Z,12.60
2022-09-17T00:11:14.947Z,12.70
2022-09-17T00:13:44.955Z,12.80
2022-09-17T00:16:13.688Z,12.80
2022-09-17T00:18:43.453Z,12.80
2022-09-17T00:21:17.851Z,12.70
2022-09-17T00:23:44.863Z,12.80
2022-09-17T00:26:12.029Z,12.60
2022-09-17T00:28:38.818Z,12.60
2022-09-17T00:31:09.641Z,12.60
2022-09-17T00:33:37.014Z,12.50
2022-09-17T00:36:06.388Z,12.40
2022-09-17T00:38:34.364Z,12.30
2022-09-17T00:41:02.163Z,12.30
2022-09-17T00:43:42.244Z,12.20
2022-09-17T00:46:23.271Z,12.10
2022-09-17T00:48:52.957Z,12.30
2022-09-17T00:51:27.310Z,12.30
2022-09-17T00:53:55.603Z,12.40
2022-09-17T00:56:26.669Z,12.20
2022-09-17T00:58:54.536Z,12.10
2022-09-17T01:01:21.472Z,12.10
2022-09-17T01:03:49.158Z,12.00
2022-09-17T01:06:36.323Z,12.10
2022-09-17T01:09:31.655Z,12.10
2022-09-17T01:12:31.683Z,11.90
2022-09-17T01:15:14.146Z,12.10
2022-09-17T01:17:53.922Z,12.10
2022-09-17T01:20:58.648Z,12.20
2022-09-17T01:23:46.473Z,12.30
2022-09-17T01:26:51.100Z,12.10
2022-09-17T01:29:38.695Z,12.00
2022-09-17T01:32:12.316Z,12.00
2022-09-17T01:34:45.984Z,12.00
2022-09-17T01:37:19.418Z,12.10
2022-09-17T01:39:58.078Z,12.30
2022-09-17T01:42:49.652Z,12.40
2022-09-17T01:45:25.687Z,12.30
2022-09-17T01:48:19.138Z,12.30
2022-09-17T01:51:05.755Z,12.20
2022-09-17T01:53:53.361Z,12.00
2022-09-17T01:56:26.932Z,11.90
2022-09-17T01:59:04.582Z,11.90
2022-09-17T02:01:33.043Z,11.90
2022-09-17T02:04:17.407Z,12.00
2022-09-17T02:06:49.490Z,12.10
2022-09-17T02:09:27.231Z,11.90
2022-09-17T02:11:58.981Z,12.10
2022-09-17T02:14:51.655Z,12.10
2022-09-17T02:17:27.187Z,11.90
2022-09-17T02:19:55.551Z,12.10
2022-09-17T02:58:46.913Z,11.80
2022-09-17T03:01:23.550Z,12.00
2022-09-17T03:03:52.636Z,11.90
2022-09-17T03:06:19.555Z,12.00
2022-09-17T03:08:47.492Z,12.00
2022-09-17T03:11:14.967Z,11.90
2022-09-17T03:13:42.950Z,11.80
2022-09-17T03:16:10.179Z,11.60
2022-09-17T03:18:37.038Z,11.50
2022-09-17T03:21:03.744Z,11.30
2022-09-17T03:23:30.490Z,11.20
2022-09-17T03:25:57.235Z,11.20
2022-09-17T03:28:25.467Z,11.20
2022-09-17T03:30:52.973Z,11.10
2022-09-17T03:33:20.801Z,11.30
2022-09-17T03:35:47.840Z,11.30
2022-09-17T03:38:14.692Z,11.10
2022-09-17T03:40:41.474Z,11.30
2022-09-17T03:43:08.528Z,11.20
2022-09-17T03:45:35.415Z,11.20
2022-09-17T03:48:02.214Z,11.20
2022-09-17T03:50:28.899Z,11.10
2022-09-17T03:52:55.534Z,11.00
2022-09-17T03:55:22.204Z,10.90
2022-09-17T03:57:48.875Z,10.70
2022-09-17T04:00:17.269Z,10.70
2022-09-17T04:02:44.194Z,10.80
2022-09-17T04:05:11.225Z,10.80
2022-09-17T04:07:40.961Z,10.80
2022-09-17T04:10:08.585Z,10.80
2022-09-17T04:12:35.355Z,10.80
2022-09-17T04:15:02.187Z,10.90
2022-09-17T04:17:28.932Z,10.90
2022-09-17T04:19:55.565Z,10.70
2022-09-17T04:22:22.181Z,10.70
2022-09-17T04:24:48.928Z,10.80
2022-09-17T04:27:15.718Z,10.70
2022-09-17T04:29:42.366Z,10.70
2022-09-17T04:32:09.233Z,10.70
2022-09-17T04:34:35.842Z,10.80
2022-09-17T04:37:02.499Z,10.70
2022-09-17T04:39:29.196Z,10.70
2022-09-17T04:41:55.907Z,10.60
2022-09-17T04:44:22.510Z,10.70
2022-09-17T04:46:49.269Z,10.70
2022-09-17T04:49:15.991Z,10.70
2022-09-17T04:51:42.608Z,10.70
2022-09-17T04:54:09.514Z,10.60
2022-09-17T04:56:36.146Z,10.70
2022-09-17T04:59:02.962Z,10.80
2022-09-17T05:01:29.646Z,10.70
2022-09-17T05:03:56.452Z,10.80
2022-09-17T05:06:23.075Z,10.80
2022-09-17T05:08:50.508Z,10.40
2022-09-17T05:11:17.131Z,10.60
2022-09-17T05:13:43.910Z,10.40
2022-09-17T05:16:10.606Z,10.70
2022-09-17T05:18:37.346Z,10.80
2022-09-17T05:21:04.167Z,10.70
2022-09-17T05:23:30.950Z,10.60
2022-09-17T05:26:00.865Z,10.80
2022-09-17T05:28:28.608Z,10.70
2022-09-17T05:30:58.292Z,10.80
2022-09-17T05:33:25.240Z,10.80
2022-09-17T05:35:51.925Z,10.80
2022-09-17T05:38:18.860Z,10.70
2022-09-17T05:40:46.450Z,10.50
2022-09-17T05:43:13.106Z,10.60
2022-09-17T05:45:39.917Z,10.70
2022-09-17T05:48:11.287Z,10.50
2022-09-17T05:50:38.157Z,10.50
2022-09-17T05:53:07.402Z,10.60
2022-09-17T05:55:37.164Z,10.40
2022-09-17T05:58:15.404Z,10.60
2022-09-17T06:00:43.926Z,10.60
2022-09-17T06:03:12.415Z,10.70
2022-09-17T06:05:39.341Z,10.60
2022-09-17T06:08:06.642Z,10.60
2022-09-17T06:10:36.383Z,10.70
2022-09-17T06:13:03.450Z,10.60
2022-09-17T06:15:30.259Z,10.70
2022-09-17T06:17:57.004Z,11.00
2022-09-17T06:20:23.631Z,11.00
2022-09-17T06:22:56.157Z,10.90
2022-09-17T06:25:23.640Z,10.70
2022-09-17T06:27:50.298Z,10.70
2022-09-17T06:30:17.042Z,10.90
2022-09-17T06:32:43.676Z,10.90
2022-09-17T06:35:10.576Z,10.70
2022-09-17T06:37:40.111Z,10.60
2022-09-17T06:40:08.319Z,10.60
2022-09-17T06:42:35.170Z,10.80
2022-09-17T06:45:06.948Z,10.50
2022-09-17T06:47:35.334Z,10.60
2022-09-17T06:50:02.311Z,10.60
2022-09-17T06:52:29.146Z,10.60
2022-09-17T06:54:56.371Z,10.50
2022-09-17T06:57:23.111Z,10.60
2022-09-17T06:59:50.118Z,10.60
2022-09-17T07:02:16.813Z,10.80
2022-09-17T07:04:43.491Z,10.60
2022-09-17T07:07:10.396Z,10.50
2022-09-17T07:09:37.054Z,10.90
2022-09-17T07:12:08.037Z,11.10
2022-09-17T07:14:34.754Z,11.00
2022-09-17T07:17:01.371Z,10.60
2022-09-17T07:19:28.003Z,10.60
2022-09-17T07:21:54.627Z,10.60
2022-09-17T07:24:21.255Z,10.80
2022-09-17T07:26:47.911Z,11.00
2022-09-17T07:29:15.226Z,10.90
2022-09-17T07:31:41.921Z,10.80
2022-09-17T07:34:09.842Z,10.90
2022-09-17T07:36:36.456Z,10.80
2022-09-17T07:39:03.209Z,11.00
2022-09-17T07:41:29.899Z,11.00
2022-09-17T07:43:56.617Z,11.10
2022-09-17T07:46:23.592Z,11.30
2022-09-17T07:48:51.611Z,11.50
2022-09-17T07:51:21.711Z,11.50
2022-09-17T07:53:51.662Z,11.30
2022-09-17T07:56:18.578Z,11.60
2022-09-17T07:58:45.310Z,11.70
2022-09-17T08:01:13.516Z,11.60
2022-09-17T08:03:40.436Z,11.80
2022-09-17T08:06:13.134Z,12.10
2022-09-17T08:08:40.479Z,12.10
2022-09-17T08:11:13.539Z,11.70
2022-09-17T08:13:41.103Z,11.60
2022-09-17T08:16:11.640Z,11.60
2022-09-17T08:18:38.703Z,11.70
2022-09-17T08:21:06.948Z,11.60
2022-09-17T08:23:38.445Z,11.60
2022-09-17T08:26:10.983Z,11.50
2022-09-17T08:28:37.515Z,11.70
2022-09-17T08:31:06.878Z,11.50
2022-09-17T08:33:35.345Z,11.60
2022-09-17T08:36:04.315Z,11.60
2022-09-17T08:38:37.671Z,11.30
2022-09-17T08:41:10.644Z,11.60
2022-09-17T08:43:47.774Z,11.50
2022-09-17T08:46:14.811Z,11.10
2022-09-17T08:48:47.041Z,11.10
2022-09-17T08:51:51.547Z,11.10
2022-09-17T08:54:38.977Z,11.30
2022-09-17T08:57:26.709Z,11.20
2022-09-17T09:00:22.493Z,11.30
2022-09-17T09:03:21.375Z,11.20
2022-09-17T09:05:52.435Z,11.60
2022-09-17T09:08:19.076Z,11.90
2022-09-17T09:10:55.730Z,11.90
2022-09-17T09:13:25.382Z,11.80
2022-09-17T09:16:05.569Z,11.90
2022-09-17T09:18:37.875Z,12.00
2022-09-17T09:21:16.932Z,11.80
2022-09-17T09:24:01.476Z,11.90
2022-09-17T09:26:48.136Z,11.90
2022-09-17T09:29:29.999Z,11.80
2022-09-17T09:31:56.631Z,11.90
2022-09-17T09:34:27.239Z,11.70
2022-09-17T09:37:01.906Z,11.80
2022-09-17T09:39:41.349Z,12.10
2022-09-17T09:42:16.402Z,12.00
2022-09-17T09:44:43.136Z,12.10
2022-09-17T09:47:31.686Z,12.40
2022-09-17T09:50:42.907Z,12.30
2022-09-17T09:53:51.995Z,12.20
2022-09-17T09:56:44.348Z,12.40
2022-09-17T09:59:13.183Z,12.40
2022-09-17T10:01:42.605Z,12.50
2022-09-17T10:04:16.908Z,12.50
2022-09-17T10:06:43.604Z,12.60
2022-09-17T10:09:12.119Z,12.80
2022-09-17T10:11:39.462Z,13.00
2022-09-17T10:14:26.259Z,13.00
2022-09-17T10:17:24.551Z,12.80
2022-09-17T10:20:00.118Z,12.80
2022-09-17T10:22:32.268Z,12.40
2022-09-17T10:25:00.814Z,12.10
2022-09-17T10:27:28.514Z,12.10
2022-09-17T10:30:18.991Z,12.10
2022-09-17T10:33:14.094Z,12.30
2022-09-17T10:35:40.890Z,12.40
2022-09-17T10:38:36.995Z,12.50
2022-09-17T10:41:22.037Z,12.40
2022-09-17T10:43:51.826Z,12.30
2022-09-17T10:46:27.817Z,12.30
2022-09-17T10:49:18.015Z,12.30
2022-09-17T10:51:44.924Z,12.60
2022-09-17T10:55:01.379Z,12.80
2022-09-17T10:57:51.155Z,12.90
2022-09-17T11:00:19.868Z,13.20
2022-09-17T11:03:16.578Z,13.20
2022-09-17T11:06:14.439Z,13.10
2022-09-17T11:08:59.368Z,13.30
2022-09-17T11:11:55.584Z,13.50
2022-09-17T11:14:51.831Z,13.10
2022-09-17T11:17:27.278Z,13.10
2022-09-17T11:20:18.384Z,12.80
2022-09-17T11:22:55.603Z,12.60
2022-09-17T11:26:01.447Z,12.40
2022-09-17T11:28:28.034Z,12.10
2022-09-17T11:31:14.944Z,12.00
2022-09-17T11:33:50.250Z,12.00
2022-09-17T11:36:25.399Z,12.40
2022-09-17T11:38:55.679Z,12.50
2022-09-17T11:41:27.492Z,12.50
2022-09-17T11:44:06.178Z,12.40
2022-09-17T11:46:43.656Z,12.60
2022-09-17T11:49:24.395Z,13.00
2022-09-17T11:52:02.070Z,13.50
2022-09-17T11:54:28.819Z,14.50
2022-09-17T11:57:16.389Z,14.10
2022-09-17T12:00:13.015Z,14.10
2022-09-17T12:02:59.271Z,14.10
2022-09-17T12:05:41.641Z,14.60
2022-09-17T12:08:21.886Z,14.80
2022-09-17T12:10:57.464Z,15.10
2022-09-17T12:13:34.563Z,15.90
2022-09-17T12:16:21.499Z,15.90
2022-09-17T12:18:57.441Z,14.90
2022-09-17T12:21:49.231Z,14.70
2022-09-17T12:24:22.024Z,14.40
2022-09-17T12:27:17.691Z,13.90
2022-09-17T12:29:57.022Z,13.50
2022-09-17T12:32:26.203Z,13.30
2022-09-17T12:35:23.530Z,13.20
2022-09-17T12:38:16.438Z,13.30
2022-09-17T12:40:44.289Z,13.00
2022-09-17T12:43:35.735Z,13.30
2022-09-17T12:46:28.372Z,13.00
2022-09-17T12:49:23.212Z,13.20
2022-09-17T12:52:04.600Z,13.40
2022-09-17T12:55:12.403Z,13.80
2022-09-17T12:57:45.018Z,13.80
2022-09-17T13:00:13.177Z,13.80
2022-09-17T13:02:40.165Z,14.00
2022-09-17T13:05:15.508Z,14.30
2022-09-17T13:08:12.530Z,14.10
2022-09-17T13:11:05.633Z,13.60
2022-09-17T13:13:35.312Z,13.30
2022-09-17T13:16:36.598Z,13.50
2022-09-17T13:19:31.611Z,13.50
2022-09-17T13:22:21.346Z,13.80
2022-09-17T13:25:03.042Z,14.00
2022-09-17T13:27:29.862Z,14.20
2022-09-17T13:29:56.464Z,14.20
2022-09-17T13:32:35.426Z,14.30
2022-09-17T13:35:10.951Z,15.60
2022-09-17T13:37:38.995Z,15.60
2022-09-17T13:40:24.920Z,14.90
2022-09-17T13:42:57.450Z,14.30
2022-09-17T13:45:25.042Z,14.40
2022-09-17T13:47:58.645Z,14.60
2022-09-17T13:50:36.108Z,15.40
2022-09-17T13:53:17.141Z,15.90
2022-09-17T13:56:01.771Z,16.40
2022-09-17T13:58:34.692Z,16.50
2022-09-17T14:01:13.333Z,16.70
2022-09-17T14:03:48.382Z,17.10
2022-09-17T14:06:14.990Z,17.00
2022-09-17T14:08:44.970Z,15.70
2022-09-17T14:11:36.699Z,15.70
2022-09-17T14:14:03.966Z,15.60
2022-09-17T14:16:40.985Z,16.30
2022-09-17T14:19:16.778Z,16.50
2022-09-17T14:22:02.171Z,16.70
2022-09-17T14:24:37.540Z,15.40
2022-09-17T14:27:23.110Z,16.50
2022-09-17T14:30:10.414Z,16.60
2022-09-17T14:33:06.334Z,15.40
2022-09-17T14:35:41.822Z,14.10
2022-09-17T14:38:30.815Z,13.90
2022-09-17T14:41:05.619Z,14.00
2022-09-17T14:43:45.799Z,13.40
2022-09-17T14:46:34.902Z,13.20
2022-09-17T14:49:22.968Z,13.30
2022-09-17T14:51:53.729Z,13.00
2022-09-17T14:54:22.972Z,12.90
2022-09-17T14:57:16.323Z,13.00
2022-09-17T14:59:57.348Z,12.70
2022-09-17T15:02:41.386Z,12.90
2022-09-17T15:05:33.059Z,13.00
2022-09-17T15:08:23.368Z,13.30
2022-09-17T15:10:56.863Z,14.40
2022-09-17T15:13:46.631Z,14.70
2022-09-17T15:16:27.312Z,16.20
2022-09-17T15:18:57.244Z,16.90
2022-09-17T15:21:42.947Z,16.50
2022-09-17T15:25:00.890Z,16.50
2022-09-17T15:27:36.768Z,16.20
2022-09-17T15:30:15.258Z,16.50
2022-09-17T15:32:53.947Z,17.00
2022-09-17T15:35:30.305Z,16.40
2022-09-17T15:38:23.211Z,16.20
2022-09-17T15:40:51.548Z,16.60
2022-09-17T15:43:27.256Z,16.90
2022-09-17T15:45:55.372Z,16.00
2022-09-17T15:48:29.218Z,16.10
2022-09-17T15:51:00.859Z,15.80
2022-09-17T15:53:30.100Z,14.70
2022-09-17T15:56:05.717Z,14.20
2022-09-17T15:58:46.105Z,14.30
2022-09-17T16:01:16.117Z,14.10
2022-09-17T16:03:45.847Z,13.70
2022-09-17T16:06:18.527Z,13.80
2022-09-17T16:08:49.107Z,13.60
2022-09-17T16:11:16.468Z,13.50
2022-09-17T16:13:43.575Z,13.50
2022-09-17T16:16:15.962Z,13.40
2022-09-17T16:18:42.790Z,13.60
2022-09-17T16:21:13.435Z,13.50
2022-09-17T16:23:41.053Z,13.30
2022-09-17T16:26:13.906Z,13.30
2022-09-17T16:28:41.247Z,13.30
2022-09-17T16:31:11.051Z,13.40
2022-09-17T16:33:37.847Z,13.20
2022-09-17T16:36:05.806Z,13.20
2022-09-17T16:38:33.011Z,12.90
2022-09-17T16:40:59.693Z,12.80
2022-09-17T16:43:28.277Z,12.90
2022-09-17T16:46:06.356Z,13.00
2022-09-17T16:48:33.830Z,13.00
2022-09-17T16:51:06.867Z,12.90
2022-09-17T16:53:34.627Z,12.70
2022-09-17T16:56:02.774Z,12.70
2022-09-17T16:58:29.507Z,12.50
2022-09-17T17:00:56.866Z,12.50
2022-09-17T17:03:23.627Z,12.50
2022-09-17T17:05:52.583Z,12.50
2022-09-17T17:08:20.394Z,12.50
2022-09-17T17:10:49.641Z,12.50
2022-09-17T17:13:16.243Z,12.30
2022-09-17T17:15:42.989Z,12.50
2022-09-17T17:18:12.710Z,12.60
2022-09-17T17:20:39.319Z,12.40
2022-09-17T17:23:06.095Z,12.40
2022-09-17T17:25:33.059Z,12.40
2022-09-17T17:27:59.811Z,12.40
2022-09-17T17:30:26.685Z,12.50
2022-09-17T17:32:54.594Z,12.40
2022-09-17T17:35:21.296Z,12.50
2022-09-17T17:37:48.740Z,12.40
2022-09-17T17:40:15.761Z,12.40
2022-09-17T17:42:44.063Z,12.40
2022-09-17T17:45:11.274Z,12.50
2022-09-17T17:47:38.098Z,12.50
2022-09-17T17:50:05.208Z,12.40
2022-09-17T17:52:32.101Z,12.30
2022-09-17T17:54:58.731Z,12.40
2022-09-17T17:57:25.472Z,12.40
2022-09-17T17:59:52.459Z,12.50
2022-09-17T18:02:19.141Z,12.30
2022-09-17T18:04:45.868Z,12.40
2022-09-17T18:07:12.555Z,12.30
2022-09-17T18:09:39.399Z,12.40
2022-09-17T18:12:06.755Z,12.30
2022-09-17T18:14:33.510Z,12.50
2022-09-17T18:17:00.131Z,12.20
2022-09-17T18:19:26.750Z,12.30
2022-09-17T18:21:56.405Z,12.20
2022-09-17T18:24:23.040Z,12.30
2022-09-17T18:26:49.655Z,12.20
2022-09-17T18:29:16.465Z,12.20
2022-09-17T18:31:44.460Z,12.30
2022-09-17T18:34:14.154Z,12.20
2022-09-17T18:36:42.124Z,12.20
2022-09-17T18:42:00.064Z,12.20
2022-09-17T18:44:26.692Z,12.20
2022-09-17T18:46:53.423Z,12.10
2022-09-17T18:49:20.198Z,12.10
2022-09-17T18:51:46.884Z,12.10
2022-09-17T18:54:13.631Z,12.10
2022-09-17T18:56:41.550Z,12.10
2022-09-17T18:59:09.239Z,12.10
2022-09-17T19:01:37.314Z,12.10
2022-09-17T19:04:04.976Z,12.00
2022-09-17T19:06:32.030Z,12.10
2022-09-17T19:09:05.599Z,11.90
2022-09-17T19:11:33.861Z,11.90
2022-09-17T19:14:00.840Z,11.70
2022-09-17T19:16:27.608Z,11.70
2022-09-17T19:18:54.318Z,11.70
2022-09-17T19:21:21.664Z,11.50
2022-09-17T19:23:50.924Z,11.60
2022-09-17T19:26:20.592Z,11.60
2022-09-17T19:28:47.920Z,11.70
2022-09-17T19:31:17.078Z,11.50
2022-09-17T19:33:44.727Z,11.60
2022-09-17T19:36:16.866Z,11.70
2022-09-17T19:38:44.115Z,11.60
2022-09-17T19:41:18.931Z,11.50
2022-09-17T19:43:46.427Z,11.40
2022-09-17T19:46:15.443Z,11.50
2022-09-17T19:49:09.832Z,11.60
2022-09-17T19:51:37.551Z,11.60
2022-09-17T19:54:05.113Z,11.60
2022-09-17T19:56:31.771Z,11.60
2022-09-17T19:58:58.627Z,11.40
2022-09-17T20:01:25.478Z,11.40
2022-09-17T20:03:53.280Z,11.20
2022-09-17T20:06:23.851Z,11.00
2022-09-17T20:08:53.150Z,11.10
2022-09-17T20:11:22.199Z,11.30
2022-09-17T20:13:49.205Z,11.20
2022-09-17T20:16:19.487Z,11.20
2022-09-17T20:18:47.073Z,11.00
2022-09-17T20:21:17.646Z,11.10
2022-09-17T20:23:44.428Z,11.20
2022-09-17T20:26:12.552Z,11.40
2022-09-17T20:28:39.867Z,11.30
2022-09-17T20:31:08.796Z,11.20
2022-09-17T20:33:35.564Z,11.30
2022-09-17T20:36:04.746Z,11.20
2022-09-17T20:39:09.890Z,11.20
2022-09-17T20:41:20.107Z,11.30
2022-09-17T20:43:50.358Z,11.10
2022-09-17T20:46:18.186Z,11.10
2022-09-17T20:48:44.920Z,11.00
2022-09-17T20:51:16.803Z,11.00
2022-09-17T20:53:44.239Z,11.30
2022-09-17T20:56:14.379Z,11.10
2022-09-17T20:58:48.812Z,11.20
2022-09-17T21:01:20.591Z,11.30
2022-09-17T21:03:52.465Z,11.20
2022-09-17T21:06:24.720Z,11.00
2022-09-17T21:08:52.606Z,11.10
2022-09-17T21:11:21.311Z,10.90
2022-09-17T21:13:48.111Z,11.00
2022-09-17T21:16:15.582Z,11.10
2022-09-17T21:18:42.853Z,11.20
2022-09-17T21:21:12.026Z,11.30
2022-09-17T21:23:40.135Z,11.00
2022-09-17T21:26:12.556Z,10.90
2022-09-17T21:28:40.140Z,11.00
2022-09-17T21:31:06.784Z,11.00
2022-09-17T21:33:33.455Z,11.00
2022-09-17T21:36:12.217Z,10.90
2022-09-17T21:38:39.527Z,10.90
2022-09-17T21:41:09.791Z,11.00
2022-09-17T21:43:37.267Z,10.80
2022-09-17T21:46:09.613Z,11.00
2022-09-17T21:48:41.747Z,10.90
2022-09-17T21:51:11.782Z,10.80
2022-09-17T21:53:38.712Z,10.90
2022-09-17T21:56:14.898Z,10.80
2022-09-17T21:58:44.625Z,10.80
2022-09-17T22:01:14.942Z,11.00
2022-09-17T22:03:43.005Z,10.90
2022-09-17T22:06:22.346Z,10.90
2022-09-17T22:08:51.477Z,11.00
2022-09-17T22:11:21.184Z,11.10
2022-09-17T22:13:55.264Z,11.10
2022-09-17T22:16:24.050Z,11.00
2022-09-17T22:18:51.779Z,11.00
2022-09-17T22:21:23.790Z,10.90
2022-09-17T22:23:51.811Z,11.00
2022-09-17T22:26:21.019Z,11.00
2022-09-17T22:28:48.572Z,11.00
2022-09-17T22:31:15.681Z,10.90
2022-09-17T22:33:44.235Z,10.90
2022-09-17T22:36:11.990Z,11.10
2022-09-17T22:38:39.376Z,11.00
2022-09-17T22:41:06.891Z,11.20
2022-09-17T22:43:34.087Z,10.90
2022-09-17T22:46:09.784Z,11.20
2022-09-17T22:48:36.488Z,10.90
2022-09-17T22:51:03.114Z,10.90
2022-09-17T22:53:29.850Z,11.00
2022-09-17T22:55:57.362Z,10.80
2022-09-17T22:58:24.508Z,11.10
2022-09-17T23:00:53.113Z,11.10
2022-09-17T23:03:20.952Z,10.90
2022-09-17T23:05:47.768Z,10.80
2022-09-17T23:08:14.746Z,10.90
2022-09-17T23:10:42.234Z,10.90
2022-09-17T23:13:10.227Z,11.00
2022-09-17T23:15:37.772Z,11.00
2022-09-17T23:18:05.175Z,10.80
2022-09-17T23:20:32.410Z,11.10
2022-09-17T23:23:00.031Z,11.10
2022-09-17T23:25:29.503Z,11.10
2022-09-17T23:27:56.607Z,11.10
2022-09-17T23:30:25.738Z,11.30
2022-09-17T23:32:53.946Z,11.20
2022-09-17T23:35:21.062Z,10.90
2022-09-17T23:37:47.864Z,10.90
2022-09-17T23:40:14.958Z,10.90
2022-09-17T23:42:41.623Z,11.10
2022-09-17T23:45:08.633Z,11.10
2022-09-17T23:47:35.314Z,11.00
2022-09-17T23:50:02.308Z,11.10
2022-09-17T23:52:28.944Z,11.00
2022-09-17T23:54:58.436Z,11.00
2022-09-17T23:57:27.555Z,11.00
2022-09-17T23:59:54.269Z,11.00
